Terminal Aerodrome Forecast
Issued by NWS Austin/San Antonio, TX

Home | Current Version | Previous Version | Text Only | Print | Product List | Glossary On
Versions: 1 2 3 4 5 6 7 8 9 10 11 12 13 14 15 16 17 18 19 20 21
533
FTUS44 KEWX 031351 AAA
TAFSAT
TAF AMD
KSAT 031351Z 0314/0418 01010KT P6SM -SHRA BKN010 OVC015
      TEMPO 0315/0318 3SM RA BR BKN008
     FM040900 01012KT 3SM SHRA BR OVC005=

USA.gov is the U.S. government's official web portal to all federal, state and local government web resources and services.